CCA9691 ZBAA-ZHCC
Flight info
| Callsign | CCA9691 |
|---|---|
| Flight time | 1h 9m |
| Altitude | 30100 |
| Route | RUSDO6J RUSDO W45 VAGBI B215 EKETA B208 NOPIN NOP6U |
| Aircraft | A35K/H-SDE2E3GHIJ3J4J5LM1ORWXY/LB1D1 |
Departure
| Time | 2026-04-20 15:14 |
|---|---|
| Airport | Beijing Capital International Airport (ZBAA) |
Arrival
| Time | 2026-04-20 16:23 |
|---|---|
| Airport | Zhengzhou Xinzheng International Airport (ZHCC) |
| Time | Latitude | Longitude | Altitude | Speed | Heading |
|---|---|---|---|---|---|
| 2026-04-20 14:19 | 40.07747 | 116.59015 | 130 ft | 0 kts | 263° |
| 2026-04-20 14:56 | 40.07748 | 116.59020 | 125 ft | 2 kts | 263° |
| 2026-04-20 14:56 | 40.07749 | 116.59037 | 128 ft | 3 kts | 263° |
| 2026-04-20 14:57 | 40.07752 | 116.59071 | 131 ft | 4 kts | 263° |
| 2026-04-20 14:57 | 40.07755 | 116.59099 | 124 ft | 4 kts | 263° |
| 2026-04-20 14:57 | 40.07759 | 116.59140 | 124 ft | 4 kts | 263° |
| 2026-04-20 14:57 | 40.07762 | 116.59181 | 124 ft | 4 kts | 271° |
| 2026-04-20 14:58 | 40.07759 | 116.59220 | 125 ft | 5 kts | 279° |
| 2026-04-20 14:58 | 40.07744 | 116.59255 | 124 ft | 3 kts | 328° |
| 2026-04-20 14:58 | 40.07728 | 116.59265 | 124 ft | 0 kts | 356° |
| 2026-04-20 15:00 | 40.07715 | 116.59266 | 125 ft | 2 kts | 356° |
| 2026-04-20 15:00 | 40.07698 | 116.59268 | 126 ft | 2 kts | 356° |
| 2026-04-20 15:00 | 40.07684 | 116.59269 | 124 ft | 0 kts | 356° |
| 2026-04-20 15:00 | 40.07678 | 116.59269 | 126 ft | 2 kts | 356° |
| 2026-04-20 15:01 | 40.07668 | 116.59270 | 124 ft | 0 kts | 356° |
| 2026-04-20 15:03 | 40.07709 | 116.59265 | 127 ft | 12 kts | 354° |
| 2026-04-20 15:03 | 40.07724 | 116.59263 | 125 ft | 3 kts | 354° |
| 2026-04-20 15:04 | 40.07753 | 116.59258 | 127 ft | 6 kts | 354° |
| 2026-04-20 15:04 | 40.07804 | 116.59251 | 128 ft | 9 kts | 353° |
| 2026-04-20 15:04 | 40.07874 | 116.59241 | 128 ft | 12 kts | 353° |
| 2026-04-20 15:04 | 40.07967 | 116.59227 | 128 ft | 15 kts | 353° |
| 2026-04-20 15:05 | 40.08082 | 116.59210 | 128 ft | 24 kts | 353° |
| 2026-04-20 15:05 | 40.08331 | 116.59171 | 126 ft | 39 kts | 353° |
| 2026-04-20 15:05 | 40.08550 | 116.59137 | 125 ft | 20 kts | 353° |
| 2026-04-20 15:05 | 40.08679 | 116.59115 | 128 ft | 0 kts | 349° |
| 2026-04-20 15:06 | 40.08704 | 116.59109 | 127 ft | 11 kts | 352° |
| 2026-04-20 15:06 | 40.08798 | 116.59095 | 128 ft | 0 kts | 354° |
| 2026-04-20 15:06 | 40.08839 | 116.59090 | 128 ft | 13 kts | 354° |
| 2026-04-20 15:06 | 40.08895 | 116.59081 | 126 ft | 0 kts | 352° |
| 2026-04-20 15:07 | 40.08911 | 116.59079 | 126 ft | 5 kts | 353° |
| 2026-04-20 15:07 | 40.08974 | 116.59098 | 126 ft | 0 kts | 51° |
| 2026-04-20 15:07 | 40.08979 | 116.59171 | 128 ft | 1 kts | 96° |
| 2026-04-20 15:07 | 40.08978 | 116.59184 | 129 ft | 3 kts | 96° |
| 2026-04-20 15:08 | 40.08978 | 116.59227 | 130 ft | 6 kts | 87° |
| 2026-04-20 15:08 | 40.08979 | 116.59247 | 130 ft | 2 kts | 85° |
| 2026-04-20 15:08 | 40.08979 | 116.59252 | 130 ft | 0 kts | 85° |
| 2026-04-20 15:10 | 40.08980 | 116.59260 | 119 ft | 3 kts | 85° |
| 2026-04-20 15:10 | 40.08982 | 116.59298 | 103 ft | 6 kts | 88° |
| 2026-04-20 15:10 | 40.08981 | 116.59302 | 103 ft | 0 kts | 90° |
| 2026-04-20 15:11 | 40.08981 | 116.59312 | 130 ft | 4 kts | 92° |
| 2026-04-20 15:11 | 40.08959 | 116.59384 | 128 ft | 10 kts | 122° |
| 2026-04-20 15:12 | 40.08911 | 116.59470 | 125 ft | 13 kts | 140° |
| 2026-04-20 15:12 | 40.08826 | 116.59502 | 128 ft | 14 kts | 172° |
| 2026-04-20 15:12 | 40.08807 | 116.59505 | 128 ft | 0 kts | 173° |
| 2026-04-20 15:13 | 40.08712 | 116.59521 | 128 ft | 41 kts | 173° |
| 2026-04-20 15:13 | 40.08166 | 116.59606 | 127 ft | 115 kts | 173° |
| 2026-04-20 15:14 | 40.07163 | 116.59765 | 142 ft | 174 kts | 173° |
| 2026-04-20 15:14 | 40.05917 | 116.59985 | 765 ft | 183 kts | 173° |
| 2026-04-20 15:14 | 40.04626 | 116.60205 | 1582 ft | 191 kts | 177° |
| 2026-04-20 15:14 | 40.03278 | 116.60402 | 2476 ft | 200 kts | 178° |
| 2026-04-20 15:15 | 40.01861 | 116.60608 | 3300 ft | 213 kts | 177° |
| 2026-04-20 15:15 | 40.00288 | 116.60844 | 3733 ft | 244 kts | 176° |
| 2026-04-20 15:15 | 39.98528 | 116.61108 | 4369 ft | 263 kts | 176° |
| 2026-04-20 15:15 | 39.96670 | 116.61389 | 5188 ft | 273 kts | 176° |
| 2026-04-20 15:16 | 39.94807 | 116.61687 | 6003 ft | 273 kts | 176° |
| 2026-04-20 15:16 | 39.92894 | 116.61987 | 6830 ft | 273 kts | 176° |
| 2026-04-20 15:16 | 39.91035 | 116.62278 | 7624 ft | 272 kts | 176° |
| 2026-04-20 15:16 | 39.89151 | 116.62573 | 8370 ft | 275 kts | 176° |
| 2026-04-20 15:17 | 39.87200 | 116.62874 | 8800 ft | 291 kts | 176° |
| 2026-04-20 15:17 | 39.85150 | 116.63190 | 8892 ft | 301 kts | 176° |
| 2026-04-20 15:17 | 39.83073 | 116.63517 | 8956 ft | 301 kts | 175° |
| 2026-04-20 15:17 | 39.80988 | 116.63849 | 9296 ft | 302 kts | 176° |
| 2026-04-20 15:18 | 39.78958 | 116.64154 | 9922 ft | 305 kts | 176° |
| 2026-04-20 15:18 | 39.76832 | 116.64473 | 10531 ft | 310 kts | 176° |
| 2026-04-20 15:18 | 39.74669 | 116.64799 | 11166 ft | 315 kts | 176° |
| 2026-04-20 15:18 | 39.72474 | 116.65132 | 11791 ft | 320 kts | 176° |
| 2026-04-20 15:19 | 39.70229 | 116.65370 | 12369 ft | 326 kts | 182° |
| 2026-04-20 15:19 | 39.67989 | 116.64978 | 12989 ft | 326 kts | 200° |
| 2026-04-20 15:19 | 39.65942 | 116.63755 | 13602 ft | 325 kts | 217° |
| 2026-04-20 15:19 | 39.64261 | 116.61818 | 14184 ft | 324 kts | 233° |
| 2026-04-20 15:20 | 39.63084 | 116.59365 | 14745 ft | 324 kts | 249° |
| 2026-04-20 15:20 | 39.62487 | 116.56564 | 15317 ft | 323 kts | 265° |
| 2026-04-20 15:20 | 39.62527 | 116.53656 | 15904 ft | 324 kts | 281° |
| 2026-04-20 15:20 | 39.63187 | 116.50858 | 16519 ft | 326 kts | 294° |
| 2026-04-20 15:21 | 39.64042 | 116.48124 | 17100 ft | 329 kts | 289° |
| 2026-04-20 15:21 | 39.64450 | 116.45194 | 17733 ft | 333 kts | 273° |
| 2026-04-20 15:21 | 39.64351 | 116.42182 | 18357 ft | 336 kts | 268° |
| 2026-04-20 15:21 | 39.64146 | 116.39157 | 18898 ft | 337 kts | 268° |
| 2026-04-20 15:22 | 39.63939 | 116.36119 | 19423 ft | 339 kts | 268° |
| 2026-04-20 15:22 | 39.63733 | 116.33034 | 19701 ft | 349 kts | 268° |
| 2026-04-20 15:22 | 39.63523 | 116.29840 | 19747 ft | 362 kts | 268° |
| 2026-04-20 15:22 | 39.63306 | 116.26561 | 19744 ft | 367 kts | 268° |
| 2026-04-20 15:23 | 39.63085 | 116.23257 | 19749 ft | 368 kts | 268° |
| 2026-04-20 15:23 | 39.62862 | 116.19931 | 19899 ft | 373 kts | 268° |
| 2026-04-20 15:23 | 39.62639 | 116.16590 | 20494 ft | 370 kts | 268° |
| 2026-04-20 15:23 | 39.62500 | 116.13270 | 21083 ft | 366 kts | 273° |
| 2026-04-20 15:24 | 39.62736 | 116.10004 | 21622 ft | 364 kts | 280° |
| 2026-04-20 15:24 | 39.62787 | 116.06713 | 22099 ft | 368 kts | 268° |
| 2026-04-20 15:24 | 39.62232 | 116.03447 | 22570 ft | 376 kts | 256° |
| 2026-04-20 15:24 | 39.61065 | 116.00375 | 23011 ft | 387 kts | 244° |
| 2026-04-20 15:25 | 39.59270 | 115.97684 | 23432 ft | 403 kts | 230° |
| 2026-04-20 15:25 | 39.57078 | 115.95366 | 23800 ft | 411 kts | 226° |
| 2026-04-20 15:25 | 39.54730 | 115.93208 | 24107 ft | 416 kts | 224° |
| 2026-04-20 15:25 | 39.52313 | 115.91120 | 24411 ft | 419 kts | 223° |
| 2026-04-20 15:26 | 39.49871 | 115.89040 | 24716 ft | 421 kts | 224° |
| 2026-04-20 15:26 | 39.47433 | 115.86941 | 25033 ft | 422 kts | 224° |
| 2026-04-20 15:26 | 39.44996 | 115.84812 | 25352 ft | 423 kts | 225° |
| 2026-04-20 15:26 | 39.42567 | 115.82660 | 25658 ft | 424 kts | 225° |
| 2026-04-20 15:27 | 39.40135 | 115.80488 | 25985 ft | 425 kts | 226° |
| 2026-04-20 15:27 | 39.37696 | 115.78300 | 26283 ft | 427 kts | 226° |
| 2026-04-20 15:27 | 39.35251 | 115.76104 | 26601 ft | 429 kts | 226° |
| 2026-04-20 15:27 | 39.32796 | 115.73901 | 26940 ft | 431 kts | 226° |
| 2026-04-20 15:28 | 39.30329 | 115.71691 | 27277 ft | 433 kts | 226° |
| 2026-04-20 15:28 | 39.27839 | 115.69460 | 27474 ft | 438 kts | 226° |
| 2026-04-20 15:28 | 39.25321 | 115.67203 | 27637 ft | 444 kts | 226° |
| 2026-04-20 15:28 | 39.22768 | 115.64919 | 27812 ft | 450 kts | 226° |
| 2026-04-20 15:29 | 39.20178 | 115.62607 | 27964 ft | 455 kts | 226° |
| 2026-04-20 15:29 | 39.17563 | 115.60279 | 28204 ft | 458 kts | 226° |
| 2026-04-20 15:29 | 39.14935 | 115.57950 | 28591 ft | 458 kts | 226° |
| 2026-04-20 15:29 | 39.12314 | 115.55636 | 29084 ft | 456 kts | 226° |
| 2026-04-20 15:30 | 39.09707 | 115.53335 | 29610 ft | 453 kts | 226° |
| 2026-04-20 15:30 | 39.07110 | 115.51041 | 30058 ft | 452 kts | 226° |
| 2026-04-20 15:30 | 39.04526 | 115.48754 | 30170 ft | 451 kts | 226° |
| 2026-04-20 15:31 | 38.99362 | 115.44184 | 30185 ft | 450 kts | 226° |
| 2026-04-20 15:31 | 38.94209 | 115.39630 | 30180 ft | 449 kts | 226° |
| 2026-04-20 15:32 | 38.89091 | 115.35115 | 30185 ft | 450 kts | 226° |
| 2026-04-20 15:32 | 38.83926 | 115.30568 | 30186 ft | 450 kts | 226° |
| 2026-04-20 15:33 | 38.78761 | 115.26030 | 30187 ft | 450 kts | 225° |
| 2026-04-20 15:33 | 38.73587 | 115.21493 | 30196 ft | 453 kts | 225° |
| 2026-04-20 15:34 | 38.68328 | 115.16876 | 30191 ft | 458 kts | 225° |
| 2026-04-20 15:34 | 38.63060 | 115.12284 | 30196 ft | 458 kts | 225° |
| 2026-04-20 15:35 | 38.57789 | 115.07691 | 30196 ft | 459 kts | 224° |
| 2026-04-20 15:35 | 38.52514 | 115.03099 | 30210 ft | 459 kts | 224° |
| 2026-04-20 15:36 | 38.47239 | 114.98515 | 30203 ft | 459 kts | 224° |
| 2026-04-20 15:36 | 38.41966 | 114.93941 | 30191 ft | 458 kts | 224° |
| 2026-04-20 15:37 | 38.36692 | 114.89375 | 30196 ft | 458 kts | 224° |
| 2026-04-20 15:37 | 38.31431 | 114.84827 | 30199 ft | 456 kts | 223° |
| 2026-04-20 15:38 | 38.26186 | 114.80303 | 30202 ft | 455 kts | 223° |
| 2026-04-20 15:38 | 38.20956 | 114.75798 | 30200 ft | 453 kts | 223° |
| 2026-04-20 15:39 | 38.15749 | 114.71321 | 30195 ft | 452 kts | 222° |
| 2026-04-20 15:39 | 38.10545 | 114.66852 | 30200 ft | 451 kts | 222° |
| 2026-04-20 15:40 | 38.06221 | 114.63146 | 30192 ft | 451 kts | 222° |
| 2026-04-20 15:40 | 38.00145 | 114.57947 | 30210 ft | 451 kts | 221° |
| 2026-04-20 15:41 | 37.95821 | 114.54254 | 30203 ft | 451 kts | 221° |
| 2026-04-20 15:41 | 37.90623 | 114.49823 | 30199 ft | 450 kts | 221° |
| 2026-04-20 15:42 | 37.85419 | 114.45394 | 30202 ft | 450 kts | 221° |
| 2026-04-20 15:42 | 37.80219 | 114.40975 | 30207 ft | 450 kts | 221° |
| 2026-04-20 15:43 | 37.74980 | 114.36524 | 30209 ft | 460 kts | 221° |
| 2026-04-20 15:43 | 37.69640 | 114.31997 | 30210 ft | 463 kts | 220° |
| 2026-04-20 15:44 | 37.64288 | 114.27480 | 30221 ft | 463 kts | 220° |
| 2026-04-20 15:44 | 37.58927 | 114.22960 | 30218 ft | 463 kts | 220° |
| 2026-04-20 15:45 | 37.53563 | 114.18446 | 29482 ft | 463 kts | 220° |
| 2026-04-20 15:45 | 37.50889 | 114.16199 | 28558 ft | 461 kts | 220° |
| 2026-04-20 15:45 | 37.48242 | 114.13975 | 28027 ft | 453 kts | 220° |
| 2026-04-20 15:45 | 37.45641 | 114.11798 | 27851 ft | 448 kts | 220° |
| 2026-04-20 15:46 | 37.43044 | 114.09619 | 27838 ft | 449 kts | 220° |
| 2026-04-20 15:46 | 37.40443 | 114.07433 | 27836 ft | 450 kts | 220° |
| 2026-04-20 15:46 | 37.37839 | 114.05248 | 27844 ft | 450 kts | 220° |
| 2026-04-20 15:46 | 37.35227 | 114.03062 | 27838 ft | 451 kts | 220° |
| 2026-04-20 15:47 | 37.32615 | 114.00880 | 27849 ft | 452 kts | 220° |
| 2026-04-20 15:47 | 37.30000 | 113.98697 | 27847 ft | 452 kts | 220° |
| 2026-04-20 15:47 | 37.27379 | 113.96510 | 27850 ft | 452 kts | 220° |
| 2026-04-20 15:47 | 37.24760 | 113.94327 | 27852 ft | 452 kts | 220° |
| 2026-04-20 15:48 | 37.22139 | 113.92143 | 27854 ft | 452 kts | 220° |
| 2026-04-20 15:48 | 37.19519 | 113.89959 | 27857 ft | 452 kts | 220° |
| 2026-04-20 15:48 | 37.16897 | 113.87776 | 27862 ft | 452 kts | 220° |
| 2026-04-20 15:48 | 37.14280 | 113.85603 | 27861 ft | 452 kts | 220° |
| 2026-04-20 15:49 | 37.11657 | 113.83425 | 27863 ft | 452 kts | 220° |
| 2026-04-20 15:49 | 37.09035 | 113.81251 | 27872 ft | 452 kts | 220° |
| 2026-04-20 15:49 | 37.06413 | 113.79079 | 27864 ft | 452 kts | 220° |
| 2026-04-20 15:49 | 37.03789 | 113.76906 | 27865 ft | 452 kts | 220° |
| 2026-04-20 15:50 | 37.01166 | 113.74734 | 27865 ft | 452 kts | 220° |
| 2026-04-20 15:50 | 36.98541 | 113.72564 | 27869 ft | 452 kts | 220° |
| 2026-04-20 15:50 | 36.95919 | 113.70397 | 27871 ft | 452 kts | 220° |
| 2026-04-20 15:50 | 36.93296 | 113.68231 | 27870 ft | 452 kts | 220° |
| 2026-04-20 15:51 | 36.90674 | 113.66066 | 27849 ft | 450 kts | 220° |
| 2026-04-20 15:51 | 36.88082 | 113.63935 | 27309 ft | 444 kts | 220° |
| 2026-04-20 15:51 | 36.85497 | 113.61807 | 26466 ft | 446 kts | 220° |
| 2026-04-20 15:51 | 36.82907 | 113.59671 | 25735 ft | 446 kts | 219° |
| 2026-04-20 15:52 | 36.80319 | 113.57540 | 25053 ft | 445 kts | 219° |
| 2026-04-20 15:52 | 36.77738 | 113.55421 | 24396 ft | 443 kts | 219° |
| 2026-04-20 15:52 | 36.75171 | 113.53317 | 23969 ft | 441 kts | 219° |
| 2026-04-20 15:53 | 36.70035 | 113.49110 | 23772 ft | 442 kts | 219° |
| 2026-04-20 15:53 | 36.67473 | 113.47009 | 23779 ft | 440 kts | 218° |
| 2026-04-20 15:53 | 36.64920 | 113.44920 | 23777 ft | 439 kts | 218° |
| 2026-04-20 15:53 | 36.62366 | 113.42833 | 23775 ft | 439 kts | 218° |
| 2026-04-20 15:54 | 36.59819 | 113.40752 | 23740 ft | 437 kts | 218° |
| 2026-04-20 15:54 | 36.57325 | 113.38719 | 23194 ft | 432 kts | 218° |
| 2026-04-20 15:54 | 36.54816 | 113.36675 | 22470 ft | 430 kts | 218° |
| 2026-04-20 15:54 | 36.52326 | 113.34647 | 22019 ft | 427 kts | 218° |
| 2026-04-20 15:55 | 36.49837 | 113.32618 | 21885 ft | 429 kts | 218° |
| 2026-04-20 15:55 | 36.47338 | 113.30581 | 21880 ft | 430 kts | 218° |
| 2026-04-20 15:55 | 36.44839 | 113.28548 | 21881 ft | 429 kts | 218° |
| 2026-04-20 15:55 | 36.42338 | 113.26516 | 21887 ft | 429 kts | 218° |
| 2026-04-20 15:56 | 36.39839 | 113.24488 | 21883 ft | 429 kts | 218° |
| 2026-04-20 15:56 | 36.37485 | 113.22580 | 21884 ft | 429 kts | 217° |
| 2026-04-20 15:56 | 36.34983 | 113.20553 | 21890 ft | 429 kts | 217° |
| 2026-04-20 15:56 | 36.32485 | 113.18530 | 21885 ft | 429 kts | 217° |
| 2026-04-20 15:57 | 36.29951 | 113.16554 | 21888 ft | 432 kts | 214° |
| 2026-04-20 15:57 | 36.27224 | 113.14965 | 21888 ft | 437 kts | 205° |
| 2026-04-20 15:57 | 36.24273 | 113.13976 | 21886 ft | 444 kts | 194° |
| 2026-04-20 15:57 | 36.21169 | 113.13734 | 21899 ft | 451 kts | 182° |
| 2026-04-20 15:58 | 36.18061 | 113.14271 | 21627 ft | 450 kts | 172° |
| 2026-04-20 15:58 | 36.15039 | 113.15309 | 21108 ft | 452 kts | 166° |
| 2026-04-20 15:58 | 36.12064 | 113.16635 | 20914 ft | 457 kts | 163° |
| 2026-04-20 15:58 | 36.09102 | 113.18071 | 20891 ft | 458 kts | 162° |
| 2026-04-20 15:59 | 36.06140 | 113.19521 | 20893 ft | 457 kts | 162° |
| 2026-04-20 15:59 | 36.03176 | 113.20944 | 20892 ft | 457 kts | 163° |
| 2026-04-20 15:59 | 36.00203 | 113.22333 | 20891 ft | 456 kts | 163° |
| 2026-04-20 15:59 | 35.97226 | 113.23692 | 20893 ft | 456 kts | 164° |
| 2026-04-20 16:00 | 35.94243 | 113.25032 | 20892 ft | 456 kts | 164° |
| 2026-04-20 16:00 | 35.91262 | 113.26359 | 20893 ft | 456 kts | 164° |
| 2026-04-20 16:00 | 35.88278 | 113.27685 | 20900 ft | 456 kts | 164° |
| 2026-04-20 16:00 | 35.85293 | 113.29013 | 20897 ft | 456 kts | 164° |
| 2026-04-20 16:01 | 35.82310 | 113.30346 | 20897 ft | 456 kts | 164° |
| 2026-04-20 16:01 | 35.79331 | 113.31680 | 20895 ft | 456 kts | 164° |
| 2026-04-20 16:01 | 35.76351 | 113.33011 | 20899 ft | 456 kts | 164° |
| 2026-04-20 16:01 | 35.73368 | 113.34344 | 20896 ft | 456 kts | 164° |
| 2026-04-20 16:02 | 35.70388 | 113.35675 | 20681 ft | 454 kts | 164° |
| 2026-04-20 16:02 | 35.67420 | 113.36999 | 20435 ft | 454 kts | 164° |
| 2026-04-20 16:02 | 35.64458 | 113.38319 | 20194 ft | 452 kts | 164° |
| 2026-04-20 16:02 | 35.61505 | 113.39633 | 19952 ft | 451 kts | 164° |
| 2026-04-20 16:03 | 35.58563 | 113.40945 | 19708 ft | 449 kts | 164° |
| 2026-04-20 16:03 | 35.55634 | 113.42244 | 19471 ft | 447 kts | 164° |
| 2026-04-20 16:03 | 35.52713 | 113.43540 | 19235 ft | 445 kts | 164° |
| 2026-04-20 16:03 | 35.49810 | 113.44828 | 19006 ft | 443 kts | 164° |
| 2026-04-20 16:04 | 35.46910 | 113.46111 | 18773 ft | 441 kts | 163° |
| 2026-04-20 16:04 | 35.44031 | 113.47384 | 18544 ft | 440 kts | 163° |
| 2026-04-20 16:04 | 35.41161 | 113.48668 | 18274 ft | 438 kts | 163° |
| 2026-04-20 16:04 | 35.38314 | 113.49948 | 18017 ft | 435 kts | 163° |
| 2026-04-20 16:05 | 35.35477 | 113.51222 | 17761 ft | 433 kts | 163° |
| 2026-04-20 16:05 | 35.32649 | 113.52491 | 17496 ft | 431 kts | 163° |
| 2026-04-20 16:05 | 35.29844 | 113.53749 | 17235 ft | 429 kts | 163° |
| 2026-04-20 16:05 | 35.27048 | 113.55001 | 16983 ft | 427 kts | 162° |
| 2026-04-20 16:06 | 35.24268 | 113.56246 | 16726 ft | 425 kts | 162° |
| 2026-04-20 16:06 | 35.21501 | 113.57484 | 16477 ft | 423 kts | 162° |
| 2026-04-20 16:06 | 35.18747 | 113.58715 | 16227 ft | 421 kts | 162° |
| 2026-04-20 16:06 | 35.16005 | 113.59940 | 15907 ft | 416 kts | 162° |
| 2026-04-20 16:07 | 35.13308 | 113.61145 | 15368 ft | 410 kts | 162° |
| 2026-04-20 16:07 | 35.10642 | 113.62334 | 14777 ft | 406 kts | 162° |
| 2026-04-20 16:07 | 35.08002 | 113.63512 | 14165 ft | 403 kts | 161° |
| 2026-04-20 16:07 | 35.05373 | 113.64663 | 13494 ft | 400 kts | 162° |
| 2026-04-20 16:08 | 35.02766 | 113.65790 | 12871 ft | 395 kts | 162° |
| 2026-04-20 16:08 | 35.00197 | 113.66903 | 12258 ft | 390 kts | 161° |
| 2026-04-20 16:08 | 34.97693 | 113.67988 | 11676 ft | 385 kts | 161° |
| 2026-04-20 16:08 | 34.95218 | 113.69062 | 11466 ft | 369 kts | 161° |
| 2026-04-20 16:09 | 34.92852 | 113.70090 | 11303 ft | 354 kts | 161° |
| 2026-04-20 16:09 | 34.90584 | 113.71074 | 11156 ft | 339 kts | 161° |
| 2026-04-20 16:09 | 34.88432 | 113.72008 | 10996 ft | 326 kts | 161° |
| 2026-04-20 16:09 | 34.86342 | 113.72915 | 10852 ft | 313 kts | 161° |
| 2026-04-20 16:10 | 34.84315 | 113.73724 | 10703 ft | 300 kts | 165° |
| 2026-04-20 16:10 | 34.82336 | 113.74345 | 10577 ft | 289 kts | 167° |
| 2026-04-20 16:10 | 34.80417 | 113.74937 | 10453 ft | 278 kts | 166° |
| 2026-04-20 16:10 | 34.78576 | 113.75516 | 10322 ft | 268 kts | 166° |
| 2026-04-20 16:11 | 34.76769 | 113.75757 | 10194 ft | 257 kts | 187° |
| 2026-04-20 16:11 | 34.75091 | 113.75179 | 10070 ft | 247 kts | 202° |
| 2026-04-20 16:11 | 34.73522 | 113.74379 | 9827 ft | 243 kts | 203° |
| 2026-04-20 16:11 | 34.71977 | 113.73581 | 9536 ft | 240 kts | 202° |
| 2026-04-20 16:12 | 34.70440 | 113.72806 | 9237 ft | 239 kts | 202° |
| 2026-04-20 16:12 | 34.69028 | 113.71755 | 8877 ft | 239 kts | 224° |
| 2026-04-20 16:12 | 34.68234 | 113.70020 | 8595 ft | 238 kts | 258° |
| 2026-04-20 16:12 | 34.68341 | 113.68054 | 8356 ft | 233 kts | 288° |
| 2026-04-20 16:13 | 34.68922 | 113.66242 | 8156 ft | 228 kts | 293° |
| 2026-04-20 16:13 | 34.69532 | 113.64497 | 8007 ft | 220 kts | 293° |
| 2026-04-20 16:13 | 34.70101 | 113.62840 | 7933 ft | 207 kts | 292° |
| 2026-04-20 16:13 | 34.70632 | 113.61238 | 7697 ft | 203 kts | 292° |
| 2026-04-20 16:14 | 34.71151 | 113.59652 | 7422 ft | 202 kts | 292° |
| 2026-04-20 16:14 | 34.71639 | 113.58060 | 7141 ft | 201 kts | 287° |
| 2026-04-20 16:14 | 34.71764 | 113.56383 | 6813 ft | 201 kts | 262° |
| 2026-04-20 16:14 | 34.71242 | 113.54832 | 6528 ft | 199 kts | 232° |
| 2026-04-20 16:15 | 34.70199 | 113.53771 | 6326 ft | 196 kts | 205° |
| 2026-04-20 16:15 | 34.68946 | 113.53123 | 6127 ft | 195 kts | 199° |
| 2026-04-20 16:15 | 34.67670 | 113.52550 | 5956 ft | 195 kts | 198° |
| 2026-04-20 16:15 | 34.66350 | 113.52264 | 5726 ft | 193 kts | 176° |
| 2026-04-20 16:16 | 34.65166 | 113.52899 | 5446 ft | 186 kts | 135° |
| 2026-04-20 16:16 | 34.64367 | 113.54054 | 5318 ft | 173 kts | 121° |
| 2026-04-20 16:16 | 34.63797 | 113.55307 | 5119 ft | 170 kts | 113° |
| 2026-04-20 16:16 | 34.63291 | 113.56664 | 5078 ft | 180 kts | 111° |
| 2026-04-20 16:17 | 34.62794 | 113.58050 | 5021 ft | 182 kts | 111° |
| 2026-04-20 16:17 | 34.62303 | 113.59432 | 4864 ft | 172 kts | 111° |
| 2026-04-20 16:17 | 34.61854 | 113.60734 | 4646 ft | 164 kts | 110° |
| 2026-04-20 16:17 | 34.61425 | 113.62004 | 4412 ft | 162 kts | 110° |
| 2026-04-20 16:18 | 34.60996 | 113.63270 | 4177 ft | 162 kts | 110° |
| 2026-04-20 16:18 | 34.60569 | 113.64533 | 3957 ft | 162 kts | 111° |
| 2026-04-20 16:18 | 34.60144 | 113.65785 | 3740 ft | 158 kts | 111° |
| 2026-04-20 16:18 | 34.59736 | 113.66986 | 3529 ft | 150 kts | 111° |
| 2026-04-20 16:19 | 34.59342 | 113.68150 | 3332 ft | 147 kts | 111° |
| 2026-04-20 16:19 | 34.58962 | 113.69274 | 3131 ft | 142 kts | 110° |
| 2026-04-20 16:19 | 34.58588 | 113.70379 | 2951 ft | 141 kts | 111° |
| 2026-04-20 16:19 | 34.58216 | 113.71479 | 2762 ft | 141 kts | 110° |
| 2026-04-20 16:20 | 34.57844 | 113.72579 | 2569 ft | 141 kts | 111° |
| 2026-04-20 16:20 | 34.57473 | 113.73676 | 2381 ft | 140 kts | 111° |
| 2026-04-20 16:20 | 34.57102 | 113.74772 | 2193 ft | 140 kts | 111° |
| 2026-04-20 16:20 | 34.56733 | 113.75861 | 2004 ft | 139 kts | 111° |
| 2026-04-20 16:21 | 34.56365 | 113.76945 | 1818 ft | 139 kts | 112° |
| 2026-04-20 16:21 | 34.55999 | 113.78025 | 1624 ft | 139 kts | 112° |
| 2026-04-20 16:21 | 34.55634 | 113.79105 | 1444 ft | 138 kts | 112° |
| 2026-04-20 16:21 | 34.55269 | 113.80183 | 1235 ft | 138 kts | 111° |
| 2026-04-20 16:22 | 34.54907 | 113.81255 | 1017 ft | 137 kts | 112° |
| 2026-04-20 16:22 | 34.54548 | 113.82328 | 832 ft | 139 kts | 111° |
| 2026-04-20 16:22 | 34.54189 | 113.83403 | 649 ft | 138 kts | 111° |
| 2026-04-20 16:22 | 34.53823 | 113.84488 | 511 ft | 140 kts | 112° |
| 2026-04-20 16:23 | 34.53515 | 113.85357 | 505 ft | 72 kts | 115° |
| 2026-04-20 16:23 | 34.53395 | 113.85693 | 505 ft | 34 kts | 112° |
| 2026-04-20 16:23 | 34.53312 | 113.85911 | 506 ft | 11 kts | 133° |
| 2026-04-20 16:23 | 34.53251 | 113.85956 | 506 ft | 11 kts | 150° |
| 2026-04-20 16:24 | 34.53234 | 113.85968 | 507 ft | 1 kts | 148° |
| 2026-04-20 16:24 | 34.53215 | 113.85985 | 507 ft | 11 kts | 141° |
| 2026-04-20 16:24 | 34.53130 | 113.86019 | 508 ft | 6 kts | 207° |
| 2026-04-20 16:24 | 34.53121 | 113.85999 | 508 ft | 4 kts | 255° |
| 2026-04-20 16:25 | 34.53122 | 113.85958 | 508 ft | 6 kts | 276° |
| 2026-04-20 16:25 | 34.53088 | 113.85888 | 508 ft | 9 kts | 213° |
| 2026-04-20 16:25 | 34.53070 | 113.85838 | 508 ft | 6 kts | 273° |
| 2026-04-20 16:25 | 34.53080 | 113.85799 | 508 ft | 8 kts | 290° |
| 2026-04-20 16:26 | 34.53106 | 113.85721 | 508 ft | 12 kts | 292° |
| 2026-04-20 16:26 | 34.53141 | 113.85617 | 508 ft | 15 kts | 289° |
| 2026-04-20 16:26 | 34.53129 | 113.85570 | 508 ft | 2 kts | 210° |
| 2026-04-20 16:26 | 34.53103 | 113.85553 | 508 ft | 6 kts | 207° |
| 2026-04-20 16:27 | 34.53056 | 113.85531 | 508 ft | 9 kts | 201° |
| 2026-04-20 16:27 | 34.52988 | 113.85498 | 508 ft | 12 kts | 201° |
| 2026-04-20 16:27 | 34.52900 | 113.85455 | 508 ft | 15 kts | 202° |
| 2026-04-20 16:27 | 34.52823 | 113.85416 | 508 ft | 0 kts | 207° |
| 2026-04-20 16:28 | 34.52816 | 113.85395 | 508 ft | 5 kts | 266° |
| 2026-04-20 16:28 | 34.52826 | 113.85333 | 507 ft | 9 kts | 285° |
| 2026-04-20 16:28 | 34.52832 | 113.85309 | 507 ft | 0 kts | 284° |
| 2026-04-20 16:28 | 34.52830 | 113.85314 | 507 ft | 1 kts | 284° |
| 2026-04-20 16:29 | 34.52830 | 113.85315 | 507 ft | 0 kts | 284° |